Time;durP1;ratioP1;P1;durP2;ratioP2;P2;SDS_P1;SDS_P2;PMS_P1;PMS_P2;Temp;Humidity;BMP_temperature;BMP_pressure;BME280_temperature;BME280_humidity;BME280_pressure;Samples;Min_cycle;Max_cycle;Signal;HPM_P1;HPM_P2
2021/12/01 00:02:09;;;;;;;8.25;3.67;;;9.40;99.90;;;;;;5067226;28;20111;-78
2021/12/01 00:04:35;;;;;;;11.02;5.72;;;9.40;99.90;;;;;;5070585;28;20040;-78
2021/12/01 00:07:00;;;;;;;8.27;4.30;;;9.50;99.90;;;;;;5065422;28;20076;-78
2021/12/01 00:09:26;;;;;;;5.97;3.75;;;9.50;99.90;;;;;;5065491;28;20118;-78
2021/12/01 00:11:52;;;;;;;5.70;4.20;;;9.50;99.90;;;;;;5069306;28;20052;-78
2021/12/01 00:14:17;;;;;;;9.75;3.92;;;9.60;99.90;;;;;;5070557;28;20040;-77
2021/12/01 00:16:44;;;;;;;4.60;2.92;;;9.60;99.90;;;;;;5058466;28;20043;-78
2021/12/01 00:19:10;;;;;;;8.10;3.50;;;9.60;99.90;;;;;;5070506;28;20413;-78
2021/12/01 00:21:37;;;;;;;15.50;8.35;;;9.60;99.90;;;;;;5064941;28;20052;-78
2021/12/01 00:24:02;;;;;;;10.82;5.53;;;9.60;99.90;;;;;;5064977;28;20051;-78
2021/12/01 00:26:28;;;;;;;10.73;7.35;;;9.70;99.90;;;;;;5070179;28;20056;-78
2021/12/01 00:28:54;;;;;;;9.07;5.60;;;9.70;99.90;;;;;;5068958;28;20039;-78
2021/12/01 00:31:20;;;;;;;12.60;5.18;;;9.70;99.90;;;;;;5070375;28;20378;-77
2021/12/01 00:33:46;;;;;;;9.35;4.70;;;9.70;99.90;;;;;;5068678;28;20424;-77
2021/12/01 00:36:15;;;;;;;16.95;7.35;;;9.70;99.90;;;;;;5068844;28;20048;-77
2021/12/01 00:38:42;;;;;;;11.75;6.15;;;9.70;99.90;;;;;;5057732;28;20075;-78
2021/12/01 00:41:12;;;;;;;4.88;3.42;;;9.70;99.90;;;;;;5070052;28;20056;-78
2021/12/01 00:43:39;;;;;;;12.63;7.00;;;9.70;99.90;;;;;;5062632;28;20449;-78
2021/12/01 00:46:11;;;;;;;11.95;6.45;;;9.70;99.90;;;;;;5067491;28;20040;-77
2021/12/01 00:48:37;;;;;;;5.38;3.33;;;9.70;99.90;;;;;;5051874;28;20044;-78
2021/12/01 00:51:03;;;;;;;5.55;4.20;;;9.70;99.90;;;;;;5062495;28;20049;-77
2021/12/01 00:53:29;;;;;;;9.88;5.03;;;9.70;99.90;;;;;;5061009;28;20049;-78
2021/12/01 00:55:54;;;;;;;8.65;4.40;;;9.70;99.90;;;;;;5069967;28;20086;-77
2021/12/01 00:58:20;;;;;;;21.15;7.28;;;9.70;99.90;;;;;;5068783;28;20044;-78
2021/12/01 01:00:49;;;;;;;5.55;3.70;;;9.70;99.90;;;;;;5066903;28;20049;-78
2021/12/01 01:03:15;;;;;;;7.55;4.47;;;9.70;99.90;;;;;;5060835;28;20048;-78
2021/12/01 01:05:41;;;;;;;3.90;2.70;;;9.70;99.90;;;;;;5067124;28;20504;-77
2021/12/01 01:08:07;;;;;;;7.43;3.35;;;9.70;99.90;;;;;;5070058;28;20388;-78
2021/12/01 01:18:41;;;;;;;3.97;2.67;;;9.70;99.90;;;;;;5068737;28;20466;-77
2021/12/01 01:21:08;;;;;;;3.05;2.47;;;9.70;99.90;;;;;;5061964;28;20037;-77
2021/12/01 01:23:35;;;;;;;12.20;5.45;;;9.70;99.90;;;;;;5069965;28;20392;-78
2021/12/01 01:26:04;;;;;;;12.07;4.72;;;9.70;99.90;;;;;;5067943;28;20044;-78
2021/12/01 01:28:30;;;;;;;12.77;6.68;;;9.70;99.90;;;;;;5069842;28;20080;-78
2021/12/01 01:30:58;;;;;;;11.57;4.78;;;9.80;99.90;;;;;;5068496;28;20064;-78
2021/12/01 01:33:24;;;;;;;10.15;4.35;;;9.80;99.90;;;;;;5069620;28;20481;-77
2021/12/01 01:35:50;;;;;;;10.05;6.53;;;9.90;99.90;;;;;;5043659;28;20056;-78
2021/12/01 01:38:16;;;;;;;9.38;5.85;;;9.90;99.90;;;;;;5059227;28;20453;-77
2021/12/01 01:40:42;;;;;;;9.77;5.38;;;9.90;99.90;;;;;;5060105;28;20120;-78
2021/12/01 01:43:08;;;;;;;12.30;6.10;;;9.90;99.90;;;;;;5068633;28;20447;-78
2021/12/01 01:45:35;;;;;;;5.80;3.97;;;9.90;99.90;;;;;;5071801;28;20040;-78
2021/12/01 01:48:05;;;;;;;3.97;2.40;;;9.90;99.90;;;;;;5068146;28;20036;-78
2021/12/01 01:50:37;;;;;;;23.23;5.03;;;9.90;99.90;;;;;;5072069;28;20402;-78
2021/12/01 01:53:30;;;;;;;6.95;2.78;;;9.90;99.90;;;;;;5073190;28;20075;-78
2021/12/01 01:55:59;;;;;;;8.18;3.10;;;9.90;99.90;;;;;;5068856;28;20044;-78
2021/12/01 01:58:26;;;;;;;8.10;2.38;;;10.00;99.90;;;;;;5073363;28;20378;-77
2021/12/01 02:01:06;;;;;;;8.63;2.30;;;10.00;99.90;;;;;;5070619;28;20045;-78
2021/12/01 02:03:35;;;;;;;8.52;3.63;;;10.00;99.90;;;;;;5049087;28;20048;-78
2021/12/01 02:06:01;;;;;;;9.30;1.95;;;10.00;99.90;;;;;;5069588;28;20293;-78
2021/12/01 02:08:31;;;;;;;5.97;3.00;;;10.00;99.90;;;;;;5072083;28;20095;-78
2021/12/01 02:11:02;;;;;;;1.25;1.15;;;10.00;99.90;;;;;;5066298;28;20041;-78
2021/12/01 02:13:28;;;;;;;5.95;1.88;;;10.00;99.90;;;;;;5061546;28;20045;-78
2021/12/01 02:15:56;;;;;;;3.65;1.63;;;10.00;99.90;;;;;;5072099;28;20412;-78
2021/12/01 02:18:22;;;;;;;1.20;0.98;;;10.00;99.90;;;;;;5070795;28;20040;-78
2021/12/01 02:21:06;;;;;;;6.10;1.50;;;10.00;99.90;;;;;;5067899;28;20040;-78
2021/12/01 02:23:35;;;;;;;1.05;0.93;;;9.90;99.90;;;;;;5063753;28;20044;-78
2021/12/01 02:26:02;;;;;;;5.43;1.80;;;10.00;99.90;;;;;;5065653;28;20067;-78
2021/12/01 02:28:28;;;;;;;2.38;0.73;;;9.90;99.90;;;;;;5072350;28;20043;-77
2021/12/01 02:30:54;;;;;;;0.65;0.65;;;9.90;99.90;;;;;;5067418;28;20052;-77
2021/12/01 02:33:19;;;;;;;0.40;0.40;;;9.90;99.90;;;;;;5071194;28;20044;-78
2021/12/01 02:35:45;;;;;;;2.65;1.23;;;9.90;99.90;;;;;;5069043;28;20413;-78
2021/12/01 02:38:11;;;;;;;5.30;1.50;;;9.90;99.90;;;;;;5072610;28;20059;-78
2021/12/01 02:40:37;;;;;;;9.52;1.73;;;9.90;99.90;;;;;;5051176;28;20037;-77
2021/12/01 02:43:03;;;;;;;5.85;1.67;;;9.90;99.90;;;;;;5071041;28;20048;-78
2021/12/01 02:45:29;;;;;;;4.88;1.77;;;10.00;99.90;;;;;;5071824;28;20037;-78
2021/12/01 02:47:54;;;;;;;0.73;0.73;;;10.10;99.90;;;;;;5069673;28;20040;-78
2021/12/01 02:50:20;;;;;;;4.63;1.58;;;10.10;99.90;;;;;;5061342;28;20501;-78
2021/12/01 02:52:46;;;;;;;6.25;1.55;;;10.10;99.90;;;;;;5072823;28;20875;-78
2021/12/01 02:55:15;;;;;;;1.98;1.05;;;10.10;99.90;;;;;;5072051;28;20080;-77
2021/12/01 02:58:00;;;;;;;1.33;0.60;;;10.10;99.90;;;;;;5069798;28;20151;-78
2021/12/01 03:00:26;;;;;;;2.63;0.47;;;10.10;99.90;;;;;;5064050;28;20053;-78
2021/12/01 03:02:53;;;;;;;1.63;1.08;;;10.10;99.90;;;;;;5066046;28;20396;-78
2021/12/01 03:05:20;;;;;;;3.22;1.23;;;10.20;99.90;;;;;;5071994;28;20039;-78
2021/12/01 03:07:47;;;;;;;10.60;1.95;;;10.20;99.90;;;;;;5061408;28;20085;-78
2021/12/01 03:10:13;;;;;;;2.95;0.82;;;10.20;99.90;;;;;;5070513;28;20048;-78
2021/12/01 03:12:40;;;;;;;3.65;1.75;;;10.20;99.90;;;;;;5072000;28;20055;-78
2021/12/01 03:15:09;;;;;;;4.50;1.55;;;10.20;99.90;;;;;;5063875;28;20040;-78
2021/12/01 03:17:35;;;;;;;3.47;1.38;;;10.20;99.90;;;;;;5079265;28;20396;-78
2021/12/01 03:20:03;;;;;;;0.88;0.70;;;10.20;99.90;;;;;;5070411;28;20043;-78
2021/12/01 03:22:28;;;;;;;7.72;1.20;;;10.20;99.90;;;;;;5067446;28;20504;-78
2021/12/01 03:24:55;;;;;;;2.70;1.15;;;10.10;99.90;;;;;;5071255;28;20048;-78
2021/12/01 03:27:21;;;;;;;0.20;0.20;;;10.10;99.90;;;;;;5069754;28;20067;-78
2021/12/01 03:29:50;;;;;;;7.93;2.60;;;10.10;99.90;;;;;;5067829;28;20052;-78
2021/12/01 03:32:17;;;;;;;5.05;0.85;;;10.10;99.90;;;;;;5067966;28;20041;-78
2021/12/01 03:34:44;;;;;;;11.57;2.53;;;10.10;99.90;;;;;;5091193;28;20037;-78
2021/12/01 03:37:11;;;;;;;16.30;1.50;;;10.10;99.90;;;;;;5061827;28;20123;-78
2021/12/01 03:39:37;;;;;;;10.88;1.77;;;10.10;99.90;;;;;;5059625;28;20072;-78
2021/12/01 03:42:05;;;;;;;0.95;0.93;;;10.10;99.90;;;;;;5059440;28;20036;-78
2021/12/01 03:44:32;;;;;;;4.82;1.40;;;10.10;99.90;;;;;;5060989;28;20049;-78
2021/12/01 03:46:58;;;;;;;5.30;1.67;;;10.10;99.90;;;;;;5066972;28;20394;-78
2021/12/01 03:49:24;;;;;;;2.30;0.90;;;10.10;99.90;;;;;;5054305;28;20128;-78
2021/12/01 03:51:50;;;;;;;5.07;1.67;;;10.10;99.90;;;;;;5056519;28;20115;-78
2021/12/01 03:54:16;;;;;;;9.40;2.17;;;10.10;99.90;;;;;;5071109;28;20053;-78
2021/12/01 03:56:42;;;;;;;3.30;1.42;;;10.10;99.90;;;;;;5070449;28;20046;-78
2021/12/01 03:59:07;;;;;;;22.33;2.10;;;10.10;99.90;;;;;;5065748;28;20043;-78
2021/12/01 04:01:34;;;;;;;3.28;1.05;;;10.10;99.90;;;;;;5062328;28;20036;-78
2021/12/01 04:04:00;;;;;;;4.53;1.40;;;10.00;99.90;;;;;;5060657;28;20036;-78
2021/12/01 04:06:27;;;;;;;1.60;1.08;;;10.00;99.90;;;;;;5070050;28;20036;-78
2021/12/01 04:08:54;;;;;;;14.07;2.22;;;9.90;99.90;;;;;;5063551;28;20044;-78
2021/12/01 04:11:21;;;;;;;3.97;1.35;;;9.90;99.90;;;;;;5068417;28;20558;-78
2021/12/01 04:13:47;;;;;;;2.35;1.23;;;9.90;99.90;;;;;;5068414;28;20514;-78
2021/12/01 04:16:13;;;;;;;5.95;0.90;;;9.90;99.90;;;;;;5069208;28;20519;-78
2021/12/01 04:18:39;;;;;;;14.45;2.65;;;9.90;99.90;;;;;;5063932;28;20040;-78
2021/12/01 04:21:06;;;;;;;5.13;1.38;;;9.90;99.90;;;;;;5069281;28;20568;-78
2021/12/01 04:23:34;;;;;;;2.60;1.17;;;9.80;99.90;;;;;;5069229;28;20047;-78
2021/12/01 04:26:01;;;;;;;8.68;1.52;;;9.80;99.90;;;;;;5066817;28;20037;-78
2021/12/01 04:28:27;;;;;;;1.98;0.73;;;9.80;99.90;;;;;;5066972;28;20036;-77
2021/12/01 04:30:52;;;;;;;3.25;1.45;;;9.80;99.90;;;;;;5067961;28;20086;-77
2021/12/01 04:33:18;;;;;;;3.83;1.50;;;9.80;99.90;;;;;;5070519;28;20133;-78
2021/12/01 04:35:45;;;;;;;0.40;0.40;;;9.80;99.90;;;;;;5068535;28;20051;-77
2021/12/01 04:38:11;;;;;;;7.72;1.02;;;9.80;99.90;;;;;;5047864;28;20437;-77
2021/12/01 04:40:37;;;;;;;2.20;1.00;;;9.80;99.90;;;;;;5064344;28;20131;-78
2021/12/01 04:43:03;;;;;;;1.45;1.10;;;9.80;99.90;;;;;;5064447;28;20491;-78
2021/12/01 04:45:31;;;;;;;2.70;1.17;;;9.80;99.90;;;;;;5069846;28;20033;-78
2021/12/01 04:47:57;;;;;;;5.15;1.63;;;9.80;99.90;;;;;;5067372;28;20040;-78
2021/12/01 04:50:26;;;;;;;2.53;0.90;;;9.80;99.90;;;;;;5063745;28;20091;-78
2021/12/01 04:52:54;;;;;;;7.15;1.90;;;9.80;99.90;;;;;;5070607;28;20052;-78
2021/12/01 04:55:20;;;;;;;3.00;1.25;;;9.80;99.90;;;;;;5066178;28;20052;-78
2021/12/01 04:57:47;;;;;;;12.40;1.15;;;9.80;99.90;;;;;;5044624;28;20041;-78
2021/12/01 05:00:16;;;;;;;2.60;1.42;;;9.80;99.90;;;;;;5068987;28;20109;-78
2021/12/01 05:02:42;;;;;;;1.75;1.63;;;9.80;99.90;;;;;;5058774;28;20194;-78
2021/12/01 05:05:08;;;;;;;1.75;1.63;;;9.70;99.90;;;;;;5066911;28;20518;-78
2021/12/01 05:07:34;;;;;;;1.90;1.70;;;9.70;99.90;;;;;;5069711;28;20071;-78
2021/12/01 05:10:00;;;;;;;2.15;1.58;;;9.70;99.90;;;;;;5069992;28;20174;-78
2021/12/01 05:12:26;;;;;;;1.75;1.65;;;9.70;99.90;;;;;;5061751;28;20045;-78
2021/12/01 05:14:52;;;;;;;2.05;1.85;;;9.70;99.90;;;;;;5066909;28;20041;-78
2021/12/01 05:17:19;;;;;;;3.08;1.20;;;9.70;99.90;;;;;;5069349;28;20040;-78
2021/12/01 05:19:45;;;;;;;1.30;0.80;;;9.70;99.90;;;;;;5071458;28;20057;-78
2021/12/01 05:22:11;;;;;;;1.35;1.15;;;9.60;99.90;;;;;;5068246;28;20035;-78
2021/12/01 05:24:36;;;;;;;0.77;0.77;;;9.60;99.90;;;;;;5070773;28;20036;-78
2021/12/01 05:27:04;;;;;;;0.77;0.77;;;9.60;99.90;;;;;;5055296;28;20040;-78
2021/12/01 05:29:30;;;;;;;1.30;1.08;;;9.60;99.90;;;;;;5070073;28;20120;-78
2021/12/01 05:31:57;;;;;;;1.58;0.90;;;9.50;99.90;;;;;;5091538;28;20250;-79
2021/12/01 05:34:24;;;;;;;0.88;0.88;;;9.50;99.90;;;;;;5073700;28;20052;-79
2021/12/01 05:36:51;;;;;;;1.20;1.10;;;9.50;99.90;;;;;;5073423;28;20040;-78
2021/12/01 05:39:17;;;;;;;0.40;0.40;;;9.50;99.90;;;;;;5060221;28;20562;-78
2021/12/01 05:41:43;;;;;;;1.20;0.95;;;9.50;99.90;;;;;;5073406;28;20119;-78
2021/12/01 05:44:10;;;;;;;1.08;0.98;;;9.50;99.90;;;;;;5073301;28;20081;-78
2021/12/01 05:46:35;;;;;;;0.70;0.70;;;9.40;99.90;;;;;;5071661;28;20036;-78
2021/12/01 05:49:02;;;;;;;2.08;1.38;;;9.40;99.90;;;;;;5106405;28;21809;-78
2021/12/01 05:51:28;;;;;;;1.30;1.20;;;9.40;99.90;;;;;;5068155;28;20028;-78
2021/12/01 05:53:54;;;;;;;1.73;1.58;;;9.40;99.90;;;;;;5064132;28;20120;-78
2021/12/01 05:56:20;;;;;;;0.82;0.82;;;9.40;99.90;;;;;;5068155;28;20119;-78
2021/12/01 05:58:46;;;;;;;1.40;1.30;;;9.30;99.90;;;;;;5073205;28;20045;-78
2021/12/01 06:01:12;;;;;;;1.00;0.93;;;9.30;99.90;;;;;;5064938;28;20059;-78
2021/12/01 06:03:39;;;;;;;1.40;1.30;;;9.30;99.90;;;;;;5066286;28;20082;-78
2021/12/01 06:06:06;;;;;;;2.28;1.63;;;9.30;99.90;;;;;;5068243;28;20048;-78
2021/12/01 06:08:31;;;;;;;1.77;1.58;;;9.30;99.90;;;;;;5073111;28;20036;-78
2021/12/01 06:10:57;;;;;;;3.35;1.77;;;9.30;99.90;;;;;;5070304;28;20098;-79
2021/12/01 06:13:24;;;;;;;1.65;1.55;;;9.30;99.90;;;;;;5070921;28;20400;-78
2021/12/01 06:15:50;;;;;;;3.08;1.90;;;9.30;99.90;;;;;;5072209;28;20401;-78
2021/12/01 06:18:17;;;;;;;2.35;1.90;;;9.30;99.90;;;;;;5071307;28;20113;-78
2021/12/01 06:20:43;;;;;;;3.53;1.85;;;9.20;99.90;;;;;;5065986;28;20469;-78
2021/12/01 06:23:09;;;;;;;1.63;1.52;;;9.20;99.90;;;;;;5072825;28;20036;-78
2021/12/01 06:25:35;;;;;;;1.70;1.50;;;9.20;99.90;;;;;;5072032;28;20033;-78
2021/12/01 06:28:01;;;;;;;2.58;1.85;;;9.20;99.90;;;;;;5064748;28;20044;-78
2021/12/01 06:30:31;;;;;;;1.23;1.13;;;9.20;99.90;;;;;;5070435;28;20045;-78
2021/12/01 06:32:57;;;;;;;2.42;1.92;;;9.20;99.90;;;;;;5069707;28;20444;-78
2021/12/01 06:35:23;;;;;;;1.27;1.17;;;9.20;99.90;;;;;;5081522;28;20049;-78
2021/12/01 06:37:50;;;;;;;1.85;1.67;;;9.10;99.90;;;;;;5068875;28;20037;-78
2021/12/01 06:40:16;;;;;;;2.13;1.80;;;9.20;99.90;;;;;;5069957;28;20044;-78
2021/12/01 06:42:42;;;;;;;1.20;1.10;;;9.20;99.90;;;;;;5072306;28;20541;-78
2021/12/01 06:45:10;;;;;;;1.23;1.13;;;9.20;99.90;;;;;;5069741;28;20068;-78
2021/12/01 06:47:36;;;;;;;1.08;1.00;;;9.20;99.90;;;;;;5058323;28;20043;-78
2021/12/01 06:50:03;;;;;;;1.33;1.17;;;9.10;99.90;;;;;;5065333;28;20059;-78
2021/12/01 06:52:30;;;;;;;1.95;1.67;;;9.10;99.90;;;;;;5064178;28;20045;-78
2021/12/01 06:54:57;;;;;;;1.10;1.00;;;9.10;99.90;;;;;;5068511;28;20040;-78
2021/12/01 06:57:24;;;;;;;1.10;1.08;;;9.10;99.90;;;;;;5089271;28;20052;-78
2021/12/01 06:59:49;;;;;;;1.75;1.40;;;9.10;99.90;;;;;;5069793;28;20044;-78
2021/12/01 07:02:17;;;;;;;1.38;1.27;;;9.10;99.90;;;;;;5061903;28;20618;-78
2021/12/01 07:04:43;;;;;;;1.60;0.90;;;9.10;99.90;;;;;;5068451;28;20040;-78
2021/12/01 07:07:10;;;;;;;1.98;1.77;;;9.00;99.90;;;;;;5061762;28;20401;-78
2021/12/01 07:09:35;;;;;;;1.17;1.13;;;9.00;99.90;;;;;;5070538;28;20408;-78
2021/12/01 07:12:01;;;;;;;2.15;1.80;;;9.00;99.90;;;;;;5046654;28;20050;-78
2021/12/01 07:14:27;;;;;;;1.75;1.65;;;9.10;99.90;;;;;;5065072;28;20080;-78
2021/12/01 07:16:53;;;;;;;1.20;1.10;;;9.10;99.90;;;;;;5069593;28;20047;-78
2021/12/01 07:19:19;;;;;;;1.40;1.30;;;9.10;99.90;;;;;;5070447;28;20182;-77
2021/12/01 07:21:45;;;;;;;2.65;1.50;;;9.10;99.90;;;;;;5059137;28;20123;-77
2021/12/01 07:24:11;;;;;;;0.82;0.80;;;9.10;99.90;;;;;;5070572;28;20067;-78
2021/12/01 07:26:38;;;;;;;2.05;1.60;;;9.10;99.90;;;;;;5068181;28;20041;-78
2021/12/01 07:29:04;;;;;;;1.33;1.23;;;9.10;99.90;;;;;;5069078;28;20514;-78
2021/12/01 07:31:30;;;;;;;3.03;2.03;;;9.10;99.90;;;;;;5067924;28;20055;-78
2021/12/01 07:33:56;;;;;;;1.60;1.50;;;9.10;99.90;;;;;;5067026;28;20080;-78
2021/12/01 07:36:22;;;;;;;5.10;2.65;;;9.10;99.90;;;;;;5070780;28;20133;-78
2021/12/01 07:38:50;;;;;;;2.50;2.30;;;9.10;99.90;;;;;;5054196;28;20044;-78
2021/12/01 07:41:16;;;;;;;2.85;1.63;;;9.10;99.90;;;;;;5064072;28;20048;-78
2021/12/01 07:43:42;;;;;;;4.63;2.15;;;9.20;99.90;;;;;;5054374;28;20037;-78
2021/12/01 07:46:08;;;;;;;4.10;2.08;;;9.20;99.90;;;;;;5059300;28;20044;-78
2021/12/01 07:48:36;;;;;;;5.05;3.15;;;9.20;99.90;;;;;;5064385;28;20043;-79
2021/12/01 07:51:02;;;;;;;6.78;3.03;;;9.20;99.90;;;;;;5060216;28;20048;-79
2021/12/01 07:53:28;;;;;;;4.15;2.63;;;9.30;99.90;;;;;;5062858;28;20044;-78
2021/12/01 07:55:54;;;;;;;2.90;2.30;;;9.30;99.90;;;;;;5058017;28;20032;-79
2021/12/01 07:58:20;;;;;;;2.22;1.48;;;9.30;99.90;;;;;;5057988;28;20516;-78
2021/12/01 08:00:46;;;;;;;6.50;2.55;;;9.30;99.90;;;;;;5059424;28;20043;-79
2021/12/01 08:03:11;;;;;;;2.65;2.38;;;9.30;99.90;;;;;;5057280;28;20521;-79
2021/12/01 08:05:37;;;;;;;1.75;1.55;;;9.30;99.90;;;;;;5056888;28;20048;-79
2021/12/01 08:08:05;;;;;;;1.85;1.45;;;9.30;99.90;;;;;;5059755;28;20041;-79
2021/12/01 08:10:30;;;;;;;2.30;1.60;;;9.30;99.90;;;;;;5052479;28;20067;-79
2021/12/01 08:13:00;;;;;;;2.38;2.13;;;9.30;99.90;;;;;;5082856;28;20481;-79
2021/12/01 08:15:25;;;;;;;2.65;2.05;;;9.30;99.90;;;;;;5055225;28;20033;-79
2021/12/01 08:17:52;;;;;;;3.65;2.47;;;9.30;99.90;;;;;;5060333;28;20051;-79
2021/12/01 08:20:19;;;;;;;8.93;2.70;;;9.30;99.90;;;;;;5059468;28;20057;-79
2021/12/01 08:22:45;;;;;;;3.97;2.00;;;9.30;99.90;;;;;;5062901;28;20036;-79
2021/12/01 08:25:12;;;;;;;3.88;2.58;;;9.30;99.90;;;;;;5055669;28;20128;-79
2021/12/01 08:27:37;;;;;;;5.28;2.45;;;9.30;99.90;;;;;;5053204;28;20047;-79
2021/12/01 08:30:04;;;;;;;5.13;2.38;;;9.30;99.90;;;;;;5051825;28;20115;-80
2021/12/01 08:32:30;;;;;;;2.90;1.60;;;9.30;99.90;;;;;;5057829;28;20040;-79
2021/12/01 08:34:56;;;;;;;4.75;2.15;;;9.30;99.90;;;;;;5052596;28;20038;-79
2021/12/01 08:37:22;;;;;;;2.90;1.30;;;9.30;99.90;;;;;;5049520;28;20032;-79
2021/12/01 08:39:51;;;;;;;0.82;0.73;;;9.30;99.90;;;;;;5056212;28;20044;-79
2021/12/01 08:42:22;;;;;;;2.10;1.40;;;9.20;99.90;;;;;;5051527;28;20039;-78
2021/12/01 08:44:50;;;;;;;3.92;2.03;;;9.20;99.90;;;;;;5054390;28;20043;-79
2021/12/01 08:47:21;;;;;;;6.90;2.53;;;9.20;99.90;;;;;;5055184;28;20044;-79
2021/12/01 08:49:47;;;;;;;1.52;1.05;;;9.20;99.90;;;;;;5058412;28;20044;-79
2021/12/01 08:52:13;;;;;;;4.30;1.70;;;9.20;99.90;;;;;;5065715;28;20129;-79
2021/12/01 08:54:39;;;;;;;7.53;1.85;;;9.20;99.90;;;;;;5059964;28;20895;-79
2021/12/01 08:57:06;;;;;;;8.63;2.15;;;9.20;99.90;;;;;;5063837;28;20052;-79
2021/12/01 08:59:32;;;;;;;1.77;1.15;;;9.30;99.90;;;;;;5060568;28;20163;-79
2021/12/01 09:02:00;;;;;;;6.25;1.52;;;9.30;99.90;;;;;;5060483;28;20123;-78
2021/12/01 09:04:26;;;;;;;9.65;1.92;;;9.30;99.90;;;;;;5062237;28;20152;-79
2021/12/01 09:06:52;;;;;;;8.43;1.30;;;9.30;99.90;;;;;;5052210;28;20037;-79
2021/12/01 09:09:18;;;;;;;6.05;1.13;;;9.30;99.90;;;;;;5061682;28;20162;-79
2021/12/01 09:11:49;;;;;;;6.55;1.50;;;9.30;99.90;;;;;;5063076;28;20043;-79
2021/12/01 09:14:16;;;;;;;7.40;2.22;;;9.30;99.90;;;;;;5053862;28;20116;-79
2021/12/01 09:16:46;;;;;;;8.98;1.77;;;9.30;99.90;;;;;;5052788;28;20040;-79
2021/12/01 09:19:13;;;;;;;6.72;1.20;;;9.30;99.90;;;;;;5054857;28;20538;-79
2021/12/01 09:21:39;;;;;;;7.50;1.98;;;9.30;99.90;;;;;;5059775;28;20052;-79
2021/12/01 09:24:06;;;;;;;4.72;1.65;;;9.20;99.90;;;;;;5057152;28;20390;-79
2021/12/01 09:26:32;;;;;;;3.03;1.25;;;9.10;99.90;;;;;;5062242;28;20392;-78
2021/12/01 09:28:58;;;;;;;3.85;0.95;;;9.10;99.90;;;;;;5058751;28;20117;-79
2021/12/01 09:31:25;;;;;;;5.18;1.02;;;9.00;99.90;;;;;;5050532;28;20456;-78
2021/12/01 09:33:51;;;;;;;2.80;1.00;;;9.00;99.90;;;;;;5064960;28;20045;-78
2021/12/01 09:36:17;;;;;;;4.03;1.35;;;9.00;99.90;;;;;;5067777;28;20047;-78
2021/12/01 09:38:43;;;;;;;10.38;2.25;;;9.00;99.90;;;;;;5055966;28;20043;-78
2021/12/01 09:41:11;;;;;;;8.23;2.13;;;8.90;99.90;;;;;;5058401;28;20454;-79
2021/12/01 09:43:37;;;;;;;3.13;1.27;;;8.90;99.90;;;;;;5052541;28;20037;-78
2021/12/01 09:46:05;;;;;;;4.60;1.05;;;8.90;99.90;;;;;;5051056;28;20029;-78
2021/12/01 09:48:35;;;;;;;6.68;1.45;;;8.90;99.90;;;;;;5054411;28;20111;-79
2021/12/01 09:51:01;;;;;;;11.32;2.28;;;8.90;99.90;;;;;;5062301;28;20429;-78
2021/12/01 09:53:27;;;;;;;4.95;0.98;;;8.90;99.90;;;;;;5068867;28;20123;-79
2021/12/01 09:55:53;;;;;;;15.18;1.88;;;9.00;99.90;;;;;;5069816;28;20443;-78
2021/12/01 09:58:22;;;;;;;6.63;1.75;;;9.00;99.90;;;;;;5068868;28;20071;-78
2021/12/01 10:00:55;;;;;;;6.47;1.50;;;9.10;99.90;;;;;;5053507;28;20053;-78
2021/12/01 10:03:21;;;;;;;3.22;1.52;;;9.10;99.90;;;;;;5062394;28;20059;-78
2021/12/01 10:08:38;;;;;;;5.93;1.73;;;9.20;99.90;;;;;;5061150;28;20037;-78
2021/12/01 10:11:25;;;;;;;9.98;3.03;;;9.30;99.90;;;;;;5062142;28;20094;-78
2021/12/01 10:13:57;;;;;;;20.77;3.05;;;9.40;99.90;;;;;;5059611;28;20082;-78
2021/12/01 10:16:26;;;;;;;14.95;2.95;;;9.40;99.90;;;;;;5052993;28;20056;-79
2021/12/01 10:19:19;;;;;;;4.35;1.38;;;9.40;99.90;;;;;;5060120;28;20036;-78
2021/12/01 10:21:50;;;;;;;8.13;1.92;;;9.30;99.90;;;;;;5058807;28;20110;-79
2021/12/01 10:24:25;;;;;;;7.60;0.82;;;9.30;99.90;;;;;;5055794;28;20056;-78
2021/12/01 10:26:53;;;;;;;7.82;1.83;;;9.20;99.90;;;;;;5063164;28;20202;-78
2021/12/01 10:29:48;;;;;;;5.45;1.20;;;9.20;99.90;;;;;;5068032;28;20052;-78
2021/12/01 10:32:17;;;;;;;8.57;1.77;;;9.10;99.90;;;;;;5059393;28;20064;-78
2021/12/01 10:34:50;;;;;;;13.07;2.42;;;9.10;99.90;;;;;;5069367;28;20051;-78
2021/12/01 10:37:25;;;;;;;6.80;2.17;;;9.10;99.90;;;;;;5061034;28;20052;-78
2021/12/01 10:40:20;;;;;;;11.10;2.03;;;9.10;99.90;;;;;;5061441;28;20049;-78
2021/12/01 10:42:59;;;;;;;5.47;1.38;;;9.20;99.90;;;;;;5063759;28;20071;-78
2021/12/01 10:45:31;;;;;;;9.95;2.15;;;9.20;99.90;;;;;;5061789;28;20386;-78
2021/12/01 10:47:58;;;;;;;9.32;2.20;;;9.20;99.90;;;;;;5058397;28;20456;-78
2021/12/01 10:50:26;;;;;;;15.07;2.63;;;9.10;99.90;;;;;;5052068;28;20405;-78
2021/12/01 10:53:15;;;;;;;9.43;2.00;;;9.10;99.90;;;;;;5068911;28;20044;-78
2021/12/01 10:55:43;;;;;;;3.70;1.23;;;9.10;99.90;;;;;;5064810;28;20416;-78
2021/12/01 10:58:09;;;;;;;10.02;1.77;;;9.10;99.90;;;;;;5070058;28;20048;-78
2021/12/01 11:00:43;;;;;;;23.23;1.55;;;9.20;99.90;;;;;;5069054;28;20097;-78
2021/12/01 11:03:19;;;;;;;10.48;2.95;;;9.20;99.90;;;;;;5054772;28;20037;-78
2021/12/01 11:06:07;;;;;;;6.63;1.70;;;9.20;99.90;;;;;;5064238;28;20075;-78
2021/12/01 11:08:37;;;;;;;6.15;2.55;;;9.20;99.90;;;;;;5047803;28;20130;-78
2021/12/01 11:11:10;;;;;;;13.95;2.72;;;9.30;99.90;;;;;;5057408;28;20561;-78
2021/12/01 11:13:39;;;;;;;15.15;3.35;;;9.20;99.90;;;;;;5063748;28;20049;-78
2021/12/01 11:16:07;;;;;;;14.23;2.63;;;9.20;99.90;;;;;;5056689;28;20040;-78
2021/12/01 11:18:35;;;;;;;6.35;1.92;;;9.20;99.90;;;;;;5064005;28;20412;-78
2021/12/01 11:21:05;;;;;;;11.85;2.47;;;9.10;99.90;;;;;;5083720;28;20425;-78
2021/12/01 11:23:34;;;;;;;16.45;3.13;;;9.10;99.90;;;;;;5052803;28;20037;-78
2021/12/01 11:26:16;;;;;;;15.18;2.47;;;9.10;99.90;;;;;;5058439;28;20048;-78
2021/12/01 11:28:51;;;;;;;7.18;2.20;;;9.10;99.90;;;;;;5067022;28;20041;-78
2021/12/01 11:31:25;;;;;;;20.95;3.75;;;9.20;99.90;;;;;;5058859;28;20044;-78
2021/12/01 11:33:56;;;;;;;14.32;2.67;;;9.30;99.90;;;;;;5035870;28;20186;-77
2021/12/01 11:36:32;;;;;;;12.25;2.10;;;9.40;99.90;;;;;;5062146;28;20123;-78
2021/12/01 11:39:01;;;;;;;18.73;3.42;;;9.40;99.90;;;;;;5066751;28;20302;-78
2021/12/01 11:41:28;;;;;;;20.23;4.13;;;9.30;99.90;;;;;;5050462;28;20072;-78
2021/12/01 11:43:55;;;;;;;17.77;4.10;;;9.30;99.90;;;;;;5055911;28;20080;-78
2021/12/01 11:46:21;;;;;;;15.43;2.63;;;9.30;99.90;;;;;;5061117;28;20044;-78
2021/12/01 11:48:51;;;;;;;18.30;2.63;;;9.20;99.90;;;;;;5063164;28;20109;-78
2021/12/01 11:51:23;;;;;;;20.75;3.75;;;9.20;99.90;;;;;;5054089;28;20045;-79
2021/12/01 11:53:55;;;;;;;16.30;2.83;;;9.10;99.90;;;;;;5064749;28;20500;-78
2021/12/01 11:56:32;;;;;;;13.30;3.17;;;9.10;99.90;;;;;;5063660;28;20855;-79
2021/12/01 11:59:16;;;;;;;23.30;4.40;;;9.00;99.90;;;;;;5066220;28;20079;-78
2021/12/01 12:02:05;;;;;;;14.35;1.88;;;9.00;99.90;;;;;;5044139;28;20049;-78
2021/12/01 12:04:51;;;;;;;24.95;3.00;;;8.80;99.90;;;;;;5060066;28;20048;-78
2021/12/01 12:07:30;;;;;;;17.13;3.20;;;8.80;99.90;;;;;;5064826;28;20064;-78
2021/12/01 12:10:07;;;;;;;22.92;2.92;;;8.80;99.90;;;;;;5064786;28;20040;-78
2021/12/01 12:12:44;;;;;;;25.13;4.10;;;8.80;99.90;;;;;;5066637;28;20032;-79
2021/12/01 12:15:09;;;;;;;14.60;3.40;;;8.80;99.90;;;;;;5047609;28;20040;-78
2021/12/01 12:17:36;;;;;;;10.68;2.78;;;8.70;99.90;;;;;;5059116;28;20040;-79
2021/12/01 12:20:18;;;;;;;17.25;3.05;;;8.80;99.90;;;;;;5052596;28;20045;-78
2021/12/01 12:22:46;;;;;;;13.98;3.05;;;8.80;99.90;;;;;;5051359;28;20068;-79
2021/12/01 12:25:37;;;;;;;16.23;3.60;;;8.80;99.90;;;;;;5060081;28;20040;-79
2021/12/01 12:28:21;;;;;;;11.32;2.72;;;8.80;99.90;;;;;;5082351;28;20049;-79
2021/12/01 12:30:47;;;;;;;11.05;2.05;;;8.80;99.90;;;;;;5053653;28;20123;-78
2021/12/01 12:33:22;;;;;;;17.13;2.90;;;8.80;99.90;;;;;;5060665;28;20051;-79
2021/12/01 12:35:51;;;;;;;11.10;2.50;;;8.80;99.90;;;;;;5043668;28;20412;-78
2021/12/01 12:38:17;;;;;;;8.20;2.80;;;8.60;99.90;;;;;;5058791;28;20041;-78
2021/12/01 12:40:46;;;;;;;14.00;2.20;;;8.60;99.90;;;;;;5082547;28;20110;-79
2021/12/01 12:43:14;;;;;;;8.27;1.60;;;8.50;99.90;;;;;;5050716;28;20409;-79
2021/12/01 12:45:58;;;;;;;10.15;2.30;;;8.50;99.90;;;;;;5052112;28;20370;-79
2021/12/01 12:48:24;;;;;;;9.52;2.03;;;8.40;99.90;;;;;;5053414;28;20412;-79
2021/12/01 12:51:18;;;;;;;8.23;1.65;;;8.30;99.90;;;;;;5056403;28;20048;-79
2021/12/01 12:54:06;;;;;;;7.47;1.80;;;8.30;99.90;;;;;;5068050;28;20110;-79
2021/12/01 12:57:06;;;;;;;11.98;2.72;;;8.30;99.90;;;;;;5048049;28;20509;-79
2021/12/01 12:59:33;;;;;;;10.20;2.60;;;8.40;99.90;;;;;;5068639;28;20131;-79
2021/12/01 13:02:09;;;;;;;6.25;1.80;;;8.40;99.90;;;;;;5070015;28;20033;-78
2021/12/01 13:05:08;;;;;;;14.35;2.38;;;8.40;99.90;;;;;;5063828;28;20401;-78
2021/12/01 13:07:35;;;;;;;7.72;2.47;;;8.40;99.90;;;;;;5060849;28;20032;-79
2021/12/01 13:10:15;;;;;;;9.32;2.30;;;8.50;99.90;;;;;;5070187;28;20052;-79
2021/12/01 13:12:55;;;;;;;12.40;2.17;;;8.50;99.90;;;;;;5062897;28;20390;-79